Teberda, Russia
Current Conditions -  °F | °C
As of 1:30 AM on Tuesday 21 Oct 2014 (Local Time) from URMM Reporting Station
Clear Clear  
Wind Chill: 28°   Ceiling: Unl
Heat Index: 32°   Visibility: 6mi
Dew Point: 32°   Wind: 4mph
Humidity: 100%   Direction: 270°W
Pressure: 30.03"   Gusts: NA
Location:  43.44°N, 41.75°E
Report Text: URMM 202230Z 27002MPS 9999 SKC 00/M00 Q1017 R30/CLRD70 NOSIGRMK QFE734/0979
Loading
Personal Weather Stations






























Interactive Weather Map
Tropical Storm Tracking
New forecast layout! Learn more

10-Day Weather Forecast

Advertisements
Track Severe Weather on mobile